This is the latest recevied weather packets stored in our database for station/object K3FEF-13. If no packets are shown the sender has not sent any weather packets the latest 10 day(s).
| Time | Temp. | Humidity | Pressure | Rain* | Wind** | Luminosity | Snow |
|---|---|---|---|---|---|---|---|
| 1777775117 | 6.11° C | 58% | 1014.3 hPa | 0 mm | - | - | - |
| 1777773917 | 6.67° C | 58% | 1014.5 hPa | 0 mm | - | - | - |
| 1777768516 | 7.22° C | 53% | 1013.6 hPa | 0 mm | - | - | - |
| 1777763716 | 9.44° C | 47% | 1013.4 hPa | 0 mm | - | - | - |
| 1777763116 | 9.44° C | 47% | 1013.5 hPa | 0 mm | - | - | - |
| 1777761316 | 10° C | 44% | 1013.1 hPa | 0 mm | - | - | - |
| 1777758916 | 11.11° C | 41% | 1013 hPa | 0 mm | - | - | - |
| 1777757716 | 11.11° C | 42% | 1013.1 hPa | 0 mm | - | - | - |
| 1777757116 | 11.11° C | 44% | 1012.8 hPa | 0 mm | - | - | - |
| 1777754736 | 12.22° C | 41% | 1012.9 hPa | 0 mm | - | - | - |
| 1777751716 | 11.67° C | 41% | 1013.3 hPa | 0 mm | - | - | - |
| 1777749316 | 12.22° C | 41% | 1013.8 hPa | 0 mm | - | - | - |
| 1777746956 | 11.67° C | 44% | 1014 hPa | 0 mm | - | - | - |
| 1777745136 | 11.67° C | 44% | 1014 hPa | 0 mm | - | - | - |
| 1777744516 | 12.78° C | 42% | 1014.1 hPa | 0 mm | - | - | - |
| 1777743915 | 11.67° C | 44% | 1014 hPa | 0 mm | - | - | - |
| 1777740915 | 12.22° C | 47% | 1014.4 hPa | 0 mm | - | - | - |
| 1777739115 | 12.22° C | 47% | 1014.6 hPa | 0 mm | - | - | - |
| 1777738517 | 11.67° C | 51% | 1014.7 hPa | 0 mm | - | - | - |
| 1777737317 | 11.67° C | 53% | 1014.9 hPa | 0 mm | - | - | - |
| 1777736117 | 10.56° C | 53% | 1014.8 hPa | 0 mm | - | - | - |
| 1777734317 | 10.56° C | 61% | 1014.8 hPa | 0 mm | - | - | - |
| 1777728917 | 8.33° C | 75% | 1014.9 hPa | 0 mm | - | - | - |
| 1777728317 | 7.78° C | 77% | 1014.9 hPa | 0.25 mm | - | - | - |
| 1777723537 | 5° C | 92% | 1014.6 hPa | 0 mm | - | - | - |
* Rain latest hour (hover to see other rain measurements)
** Current wind speed in m/s (hover to see current wind gust speed)